sensor_id;sensor_type;location;lat;lon;timestamp;temperature;humidity
53978;DHT22;39886;47.984;-1.586;2023-04-21T00:01:31;19.00;61.60
53978;DHT22;39886;47.984;-1.586;2023-04-21T00:03:57;19.00;61.00
53978;DHT22;39886;47.984;-1.586;2023-04-21T00:06:24;19.00;61.00
53978;DHT22;39886;47.984;-1.586;2023-04-21T00:08:51;19.00;61.00
53978;DHT22;39886;47.984;-1.586;2023-04-21T00:11:17;19.00;61.10
53978;DHT22;39886;47.984;-1.586;2023-04-21T00:13:44;18.90;61.10
53978;DHT22;39886;47.984;-1.586;2023-04-21T00:16:10;18.90;61.10
53978;DHT22;39886;47.984;-1.586;2023-04-21T00:18:36;18.90;61.10
53978;DHT22;39886;47.984;-1.586;2023-04-21T00:21:01;18.90;61.10
53978;DHT22;39886;47.984;-1.586;2023-04-21T00:23:27;18.90;61.20
53978;DHT22;39886;47.984;-1.586;2023-04-21T00:25:53;18.90;61.10
53978;DHT22;39886;47.984;-1.586;2023-04-21T00:28:19;18.90;61.20
53978;DHT22;39886;47.984;-1.586;2023-04-21T00:30:44;18.90;61.20
53978;DHT22;39886;47.984;-1.586;2023-04-21T00:33:10;18.90;61.20
53978;DHT22;39886;47.984;-1.586;2023-04-21T00:35:36;18.90;61.20
53978;DHT22;39886;47.984;-1.586;2023-04-21T00:38:02;18.90;61.20
53978;DHT22;39886;47.984;-1.586;2023-04-21T00:40:28;18.80;61.10
53978;DHT22;39886;47.984;-1.586;2023-04-21T00:42:54;18.80;61.20
53978;DHT22;39886;47.984;-1.586;2023-04-21T00:45:20;18.80;61.20
53978;DHT22;39886;47.984;-1.586;2023-04-21T00:47:45;18.80;61.20
53978;DHT22;39886;47.984;-1.586;2023-04-21T00:50:11;18.80;61.20
53978;DHT22;39886;47.984;-1.586;2023-04-21T00:52:42;18.80;61.20
53978;DHT22;39886;47.984;-1.586;2023-04-21T00:55:09;18.80;61.20
53978;DHT22;39886;47.984;-1.586;2023-04-21T00:57:38;18.80;61.20
53978;DHT22;39886;47.984;-1.586;2023-04-21T01:00:04;18.80;61.20
53978;DHT22;39886;47.984;-1.586;2023-04-21T01:02:31;18.70;61.20
53978;DHT22;39886;47.984;-1.586;2023-04-21T01:04:57;18.70;61.20
53978;DHT22;39886;47.984;-1.586;2023-04-21T01:07:24;18.70;61.20
53978;DHT22;39886;47.984;-1.586;2023-04-21T01:09:50;18.70;61.20
53978;DHT22;39886;47.984;-1.586;2023-04-21T01:12:15;18.70;61.20
53978;DHT22;39886;47.984;-1.586;2023-04-21T01:14:41;18.70;61.30
53978;DHT22;39886;47.984;-1.586;2023-04-21T01:17:07;18.70;61.30
53978;DHT22;39886;47.984;-1.586;2023-04-21T01:19:38;18.70;61.60
53978;DHT22;39886;47.984;-1.586;2023-04-21T01:22:06;18.70;61.30
53978;DHT22;39886;47.984;-1.586;2023-04-21T01:24:39;18.70;61.30
53978;DHT22;39886;47.984;-1.586;2023-04-21T01:29:40;18.60;61.30
53978;DHT22;39886;47.984;-1.586;2023-04-21T01:32:09;18.60;61.30
53978;DHT22;39886;47.984;-1.586;2023-04-21T01:34:35;18.60;61.30
53978;DHT22;39886;47.984;-1.586;2023-04-21T01:37:01;18.60;61.30
53978;DHT22;39886;47.984;-1.586;2023-04-21T01:39:27;18.60;61.30
53978;DHT22;39886;47.984;-1.586;2023-04-21T01:41:53;18.60;61.30
53978;DHT22;39886;47.984;-1.586;2023-04-21T01:44:23;18.60;61.30
53978;DHT22;39886;47.984;-1.586;2023-04-21T01:46:49;18.60;61.40
53978;DHT22;39886;47.984;-1.586;2023-04-21T01:49:14;18.60;61.30
53978;DHT22;39886;47.984;-1.586;2023-04-21T01:51:40;18.60;61.30
53978;DHT22;39886;47.984;-1.586;2023-04-21T01:54:06;18.50;61.30
53978;DHT22;39886;47.984;-1.586;2023-04-21T01:56:32;18.60;61.40
53978;DHT22;39886;47.984;-1.586;2023-04-21T01:58:57;18.50;61.30
53978;DHT22;39886;47.984;-1.586;2023-04-21T02:01:23;18.50;61.40
53978;DHT22;39886;47.984;-1.586;2023-04-21T02:03:49;18.50;61.30
53978;DHT22;39886;47.984;-1.586;2023-04-21T02:06:14;18.50;61.40
53978;DHT22;39886;47.984;-1.586;2023-04-21T02:08:42;18.50;61.40
53978;DHT22;39886;47.984;-1.586;2023-04-21T02:11:08;18.50;61.40
53978;DHT22;39886;47.984;-1.586;2023-04-21T02:13:33;18.50;61.40
53978;DHT22;39886;47.984;-1.586;2023-04-21T02:15:59;18.50;61.40
53978;DHT22;39886;47.984;-1.586;2023-04-21T02:18:25;18.50;61.30
53978;DHT22;39886;47.984;-1.586;2023-04-21T02:20:51;18.50;61.40
53978;DHT22;39886;47.984;-1.586;2023-04-21T02:23:16;18.50;61.40
53978;DHT22;39886;47.984;-1.586;2023-04-21T02:25:42;18.40;61.40
53978;DHT22;39886;47.984;-1.586;2023-04-21T02:28:08;18.50;61.40
53978;DHT22;39886;47.984;-1.586;2023-04-21T02:30:33;18.50;61.40
53978;DHT22;39886;47.984;-1.586;2023-04-21T02:32:59;18.40;61.30
53978;DHT22;39886;47.984;-1.586;2023-04-21T02:35:25;18.40;61.40
53978;DHT22;39886;47.984;-1.586;2023-04-21T02:37:51;18.40;61.40
53978;DHT22;39886;47.984;-1.586;2023-04-21T02:40:17;18.40;61.30
53978;DHT22;39886;47.984;-1.586;2023-04-21T02:42:43;18.40;61.40
53978;DHT22;39886;47.984;-1.586;2023-04-21T02:45:09;18.40;61.40
53978;DHT22;39886;47.984;-1.586;2023-04-21T02:47:35;18.40;61.40
53978;DHT22;39886;47.984;-1.586;2023-04-21T02:50:01;18.40;61.40
53978;DHT22;39886;47.984;-1.586;2023-04-21T02:52:27;18.40;61.40
53978;DHT22;39886;47.984;-1.586;2023-04-21T02:54:53;18.40;61.40
53978;DHT22;39886;47.984;-1.586;2023-04-21T02:57:19;18.30;61.40
53978;DHT22;39886;47.984;-1.586;2023-04-21T02:59:44;18.30;61.40
53978;DHT22;39886;47.984;-1.586;2023-04-21T03:02:10;18.30;61.30
53978;DHT22;39886;47.984;-1.586;2023-04-21T03:04:36;18.30;61.40
53978;DHT22;39886;47.984;-1.586;2023-04-21T03:07:02;18.30;61.40
53978;DHT22;39886;47.984;-1.586;2023-04-21T03:09:28;18.30;61.40
53978;DHT22;39886;47.984;-1.586;2023-04-21T03:11:53;18.40;61.50
53978;DHT22;39886;47.984;-1.586;2023-04-21T03:14:19;18.30;61.40
53978;DHT22;39886;47.984;-1.586;2023-04-21T03:16:45;18.30;61.40
53978;DHT22;39886;47.984;-1.586;2023-04-21T03:19:11;18.30;61.40
53978;DHT22;39886;47.984;-1.586;2023-04-21T03:21:37;18.30;61.40
53978;DHT22;39886;47.984;-1.586;2023-04-21T03:24:05;18.30;61.40
53978;DHT22;39886;47.984;-1.586;2023-04-21T03:26:30;18.30;61.40
53978;DHT22;39886;47.984;-1.586;2023-04-21T03:28:56;18.30;61.40
53978;DHT22;39886;47.984;-1.586;2023-04-21T03:31:22;18.30;61.40
53978;DHT22;39886;47.984;-1.586;2023-04-21T03:33:47;18.30;61.40
53978;DHT22;39886;47.984;-1.586;2023-04-21T03:36:13;18.20;61.30
53978;DHT22;39886;47.984;-1.586;2023-04-21T03:38:39;18.30;61.40
53978;DHT22;39886;47.984;-1.586;2023-04-21T03:41:05;18.30;61.40
53978;DHT22;39886;47.984;-1.586;2023-04-21T03:43:30;18.20;61.40
53978;DHT22;39886;47.984;-1.586;2023-04-21T03:45:56;18.20;61.40
53978;DHT22;39886;47.984;-1.586;2023-04-21T03:48:22;18.20;61.40
53978;DHT22;39886;47.984;-1.586;2023-04-21T03:50:47;18.20;61.40
53978;DHT22;39886;47.984;-1.586;2023-04-21T03:53:13;18.20;61.40
53978;DHT22;39886;47.984;-1.586;2023-04-21T03:55:39;18.20;61.40
53978;DHT22;39886;47.984;-1.586;2023-04-21T03:58:04;18.20;61.40
53978;DHT22;39886;47.984;-1.586;2023-04-21T04:00:31;18.20;61.40
53978;DHT22;39886;47.984;-1.586;2023-04-21T04:02:57;18.20;61.40
53978;DHT22;39886;47.984;-1.586;2023-04-21T04:05:23;18.20;61.40
53978;DHT22;39886;47.984;-1.586;2023-04-21T04:07:49;18.20;61.40
53978;DHT22;39886;47.984;-1.586;2023-04-21T04:10:14;18.20;61.40
53978;DHT22;39886;47.984;-1.586;2023-04-21T04:12:40;18.20;61.40
53978;DHT22;39886;47.984;-1.586;2023-04-21T04:15:06;18.20;61.40
53978;DHT22;39886;47.984;-1.586;2023-04-21T04:17:32;18.20;61.40
53978;DHT22;39886;47.984;-1.586;2023-04-21T04:19:58;18.20;61.40
53978;DHT22;39886;47.984;-1.586;2023-04-21T04:22:23;18.20;61.40
53978;DHT22;39886;47.984;-1.586;2023-04-21T04:24:49;18.10;61.30
53978;DHT22;39886;47.984;-1.586;2023-04-21T04:27:15;18.10;61.30
53978;DHT22;39886;47.984;-1.586;2023-04-21T04:29:42;18.10;61.30
53978;DHT22;39886;47.984;-1.586;2023-04-21T04:32:08;18.10;61.30
53978;DHT22;39886;47.984;-1.586;2023-04-21T04:34:35;18.10;61.30
53978;DHT22;39886;47.984;-1.586;2023-04-21T04:37:02;18.10;61.40
53978;DHT22;39886;47.984;-1.586;2023-04-21T04:39:29;18.10;61.30
53978;DHT22;39886;47.984;-1.586;2023-04-21T04:41:55;18.10;61.30
53978;DHT22;39886;47.984;-1.586;2023-04-21T04:44:21;18.10;61.30
53978;DHT22;39886;47.984;-1.586;2023-04-21T04:46:48;18.10;61.30
53978;DHT22;39886;47.984;-1.586;2023-04-21T04:49:14;18.10;61.40
53978;DHT22;39886;47.984;-1.586;2023-04-21T04:51:40;18.10;61.30
53978;DHT22;39886;47.984;-1.586;2023-04-21T04:54:05;18.10;61.30
53978;DHT22;39886;47.984;-1.586;2023-04-21T04:56:31;18.10;61.30
53978;DHT22;39886;47.984;-1.586;2023-04-21T04:58:57;18.00;61.30
53978;DHT22;39886;47.984;-1.586;2023-04-21T05:01:23;18.00;61.30
53978;DHT22;39886;47.984;-1.586;2023-04-21T05:03:54;18.00;61.30
53978;DHT22;39886;47.984;-1.586;2023-04-21T05:06:21;18.10;61.30
53978;DHT22;39886;47.984;-1.586;2023-04-21T05:08:47;18.10;61.30
53978;DHT22;39886;47.984;-1.586;2023-04-21T05:11:13;18.00;61.30
53978;DHT22;39886;47.984;-1.586;2023-04-21T05:13:38;18.00;61.30
53978;DHT22;39886;47.984;-1.586;2023-04-21T05:16:04;18.00;61.30
53978;DHT22;39886;47.984;-1.586;2023-04-21T05:18:30;18.00;61.30
53978;DHT22;39886;47.984;-1.586;2023-04-21T05:20:56;18.00;61.30
53978;DHT22;39886;47.984;-1.586;2023-04-21T05:23:22;18.00;61.30
53978;DHT22;39886;47.984;-1.586;2023-04-21T05:25:48;18.00;61.20
53978;DHT22;39886;47.984;-1.586;2023-04-21T05:28:14;18.00;61.30
53978;DHT22;39886;47.984;-1.586;2023-04-21T05:30:40;18.00;61.30
53978;DHT22;39886;47.984;-1.586;2023-04-21T05:33:06;18.00;61.30
53978;DHT22;39886;47.984;-1.586;2023-04-21T05:35:32;18.00;61.30
53978;DHT22;39886;47.984;-1.586;2023-04-21T05:37:58;18.00;61.30
53978;DHT22;39886;47.984;-1.586;2023-04-21T05:40:24;18.00;61.20
53978;DHT22;39886;47.984;-1.586;2023-04-21T05:42:49;18.00;61.20
53978;DHT22;39886;47.984;-1.586;2023-04-21T05:45:15;18.00;61.20
53978;DHT22;39886;47.984;-1.586;2023-04-21T05:47:41;18.00;61.20
53978;DHT22;39886;47.984;-1.586;2023-04-21T05:50:07;18.00;61.10
53978;DHT22;39886;47.984;-1.586;2023-04-21T05:52:33;18.00;61.20
53978;DHT22;39886;47.984;-1.586;2023-04-21T05:55:02;18.00;61.10
53978;DHT22;39886;47.984;-1.586;2023-04-21T05:57:28;18.00;61.10
53978;DHT22;39886;47.984;-1.586;2023-04-21T05:59:53;18.00;61.10
53978;DHT22;39886;47.984;-1.586;2023-04-21T06:02:22;18.00;61.10
53978;DHT22;39886;47.984;-1.586;2023-04-21T06:04:48;18.00;61.00
53978;DHT22;39886;47.984;-1.586;2023-04-21T06:07:14;18.00;61.00
53978;DHT22;39886;47.984;-1.586;2023-04-21T06:09:40;18.00;61.00
53978;DHT22;39886;47.984;-1.586;2023-04-21T06:12:06;18.00;60.90
53978;DHT22;39886;47.984;-1.586;2023-04-21T06:14:31;18.10;60.90
53978;DHT22;39886;47.984;-1.586;2023-04-21T06:16:57;18.10;60.90
53978;DHT22;39886;47.984;-1.586;2023-04-21T06:19:23;18.10;60.90
53978;DHT22;39886;47.984;-1.586;2023-04-21T06:21:49;18.10;60.90
53978;DHT22;39886;47.984;-1.586;2023-04-21T06:24:15;18.10;60.90
53978;DHT22;39886;47.984;-1.586;2023-04-21T06:26:41;18.20;60.80
53978;DHT22;39886;47.984;-1.586;2023-04-21T06:29:07;18.20;60.80
53978;DHT22;39886;47.984;-1.586;2023-04-21T06:31:33;18.20;60.80
53978;DHT22;39886;47.984;-1.586;2023-04-21T06:33:58;18.20;60.70
53978;DHT22;39886;47.984;-1.586;2023-04-21T06:36:24;18.20;60.70
53978;DHT22;39886;47.984;-1.586;2023-04-21T06:38:50;18.20;60.70
53978;DHT22;39886;47.984;-1.586;2023-04-21T06:41:16;18.30;60.70
53978;DHT22;39886;47.984;-1.586;2023-04-21T06:43:42;18.30;60.70
53978;DHT22;39886;47.984;-1.586;2023-04-21T06:46:08;18.30;60.70
53978;DHT22;39886;47.984;-1.586;2023-04-21T06:48:33;18.30;60.80
53978;DHT22;39886;47.984;-1.586;2023-04-21T06:50:59;18.30;60.70
53978;DHT22;39886;47.984;-1.586;2023-04-21T06:53:27;18.30;60.70
53978;DHT22;39886;47.984;-1.586;2023-04-21T06:55:52;18.40;60.70
53978;DHT22;39886;47.984;-1.586;2023-04-21T06:58:18;18.40;60.70
53978;DHT22;39886;47.984;-1.586;2023-04-21T07:00:44;18.50;61.40
53978;DHT22;39886;47.984;-1.586;2023-04-21T07:03:09;18.40;60.70
53978;DHT22;39886;47.984;-1.586;2023-04-21T07:05:35;18.50;60.90
53978;DHT22;39886;47.984;-1.586;2023-04-21T07:08:01;18.50;60.90
53978;DHT22;39886;47.984;-1.586;2023-04-21T07:10:27;18.60;60.80
53978;DHT22;39886;47.984;-1.586;2023-04-21T07:12:54;18.60;60.80
53978;DHT22;39886;47.984;-1.586;2023-04-21T07:15:20;18.60;60.80
53978;DHT22;39886;47.984;-1.586;2023-04-21T07:17:46;18.70;60.80
53978;DHT22;39886;47.984;-1.586;2023-04-21T07:20:12;18.70;60.90
53978;DHT22;39886;47.984;-1.586;2023-04-21T07:22:37;18.70;60.90
53978;DHT22;39886;47.984;-1.586;2023-04-21T07:25:04;18.80;60.90
53978;DHT22;39886;47.984;-1.586;2023-04-21T07:27:34;18.80;60.90
53978;DHT22;39886;47.984;-1.586;2023-04-21T07:30:03;18.80;60.90
53978;DHT22;39886;47.984;-1.586;2023-04-21T07:32:29;18.90;61.00
53978;DHT22;39886;47.984;-1.586;2023-04-21T07:34:55;18.90;61.10
53978;DHT22;39886;47.984;-1.586;2023-04-21T07:37:21;19.00;61.30
53978;DHT22;39886;47.984;-1.586;2023-04-21T07:39:47;19.00;61.40
53978;DHT22;39886;47.984;-1.586;2023-04-21T07:42:13;19.00;61.30
53978;DHT22;39886;47.984;-1.586;2023-04-21T07:44:38;19.10;61.60
53978;DHT22;39886;47.984;-1.586;2023-04-21T07:47:04;19.10;61.40
53978;DHT22;39886;47.984;-1.586;2023-04-21T07:49:30;19.10;61.30
53978;DHT22;39886;47.984;-1.586;2023-04-21T07:51:56;19.20;61.20
53978;DHT22;39886;47.984;-1.586;2023-04-21T07:54:22;19.20;61.30
53978;DHT22;39886;47.984;-1.586;2023-04-21T07:56:48;19.20;61.40
53978;DHT22;39886;47.984;-1.586;2023-04-21T07:59:13;19.20;61.50
53978;DHT22;39886;47.984;-1.586;2023-04-21T08:01:39;19.30;61.40
53978;DHT22;39886;47.984;-1.586;2023-04-21T08:04:05;19.30;61.40
53978;DHT22;39886;47.984;-1.586;2023-04-21T08:06:31;19.40;61.50
53978;DHT22;39886;47.984;-1.586;2023-04-21T08:08:58;19.40;61.50
53978;DHT22;39886;47.984;-1.586;2023-04-21T08:11:23;19.40;61.50
53978;DHT22;39886;47.984;-1.586;2023-04-21T08:13:49;19.50;61.50
53978;DHT22;39886;47.984;-1.586;2023-04-21T08:16:16;19.50;61.40
53978;DHT22;39886;47.984;-1.586;2023-04-21T08:18:41;19.50;61.30
53978;DHT22;39886;47.984;-1.586;2023-04-21T08:21:07;19.60;61.30
53978;DHT22;39886;47.984;-1.586;2023-04-21T08:23:33;19.60;61.30
53978;DHT22;39886;47.984;-1.586;2023-04-21T08:26:01;19.60;61.20
53978;DHT22;39886;47.984;-1.586;2023-04-21T08:28:27;19.60;61.20
53978;DHT22;39886;47.984;-1.586;2023-04-21T08:30:53;19.60;61.20
53978;DHT22;39886;47.984;-1.586;2023-04-21T08:33:19;19.70;61.20
53978;DHT22;39886;47.984;-1.586;2023-04-21T08:35:45;19.70;61.00
53978;DHT22;39886;47.984;-1.586;2023-04-21T08:38:10;19.80;61.10
53978;DHT22;39886;47.984;-1.586;2023-04-21T08:40:37;19.80;60.90
53978;DHT22;39886;47.984;-1.586;2023-04-21T08:43:07;19.80;61.50
53978;DHT22;39886;47.984;-1.586;2023-04-21T08:45:33;19.80;60.80
53978;DHT22;39886;47.984;-1.586;2023-04-21T08:48:00;19.90;60.90
53978;DHT22;39886;47.984;-1.586;2023-04-21T08:50:28;19.90;60.90
53978;DHT22;39886;47.984;-1.586;2023-04-21T08:52:55;19.90;60.70
53978;DHT22;39886;47.984;-1.586;2023-04-21T08:55:31;19.90;60.80
53978;DHT22;39886;47.984;-1.586;2023-04-21T08:57:57;20.00;60.90
53978;DHT22;39886;47.984;-1.586;2023-04-21T09:00:23;20.00;60.90
53978;DHT22;39886;47.984;-1.586;2023-04-21T09:02:56;20.00;60.80
53978;DHT22;39886;47.984;-1.586;2023-04-21T09:05:24;20.00;60.70
53978;DHT22;39886;47.984;-1.586;2023-04-21T09:07:50;20.00;60.80
53978;DHT22;39886;47.984;-1.586;2023-04-21T09:10:21;20.10;60.90
53978;DHT22;39886;47.984;-1.586;2023-04-21T09:12:53;20.10;60.60
53978;DHT22;39886;47.984;-1.586;2023-04-21T09:15:20;20.20;60.60
53978;DHT22;39886;47.984;-1.586;2023-04-21T09:17:46;20.20;60.60
53978;DHT22;39886;47.984;-1.586;2023-04-21T09:20:17;20.30;60.70
53978;DHT22;39886;47.984;-1.586;2023-04-21T09:22:44;20.30;60.70
53978;DHT22;39886;47.984;-1.586;2023-04-21T09:25:15;20.30;60.60
53978;DHT22;39886;47.984;-1.586;2023-04-21T09:27:41;20.30;60.50
53978;DHT22;39886;47.984;-1.586;2023-04-21T09:30:07;20.30;60.40
53978;DHT22;39886;47.984;-1.586;2023-04-21T09:32:39;20.40;60.40
53978;DHT22;39886;47.984;-1.586;2023-04-21T09:35:09;20.40;60.40
53978;DHT22;39886;47.984;-1.586;2023-04-21T09:37:35;20.40;60.40
53978;DHT22;39886;47.984;-1.586;2023-04-21T09:40:01;20.40;60.40
53978;DHT22;39886;47.984;-1.586;2023-04-21T09:42:28;20.50;60.30
53978;DHT22;39886;47.984;-1.586;2023-04-21T09:44:54;20.50;60.50
53978;DHT22;39886;47.984;-1.586;2023-04-21T09:47:21;20.50;60.60
53978;DHT22;39886;47.984;-1.586;2023-04-21T09:49:50;20.60;60.60
53978;DHT22;39886;47.984;-1.586;2023-04-21T09:52:18;20.60;60.60
53978;DHT22;39886;47.984;-1.586;2023-04-21T09:54:58;20.60;60.60
53978;DHT22;39886;47.984;-1.586;2023-04-21T09:57:25;20.70;60.70
53978;DHT22;39886;47.984;-1.586;2023-04-21T10:00:00;20.70;60.50
53978;DHT22;39886;47.984;-1.586;2023-04-21T10:02:29;20.70;60.50
53978;DHT22;39886;47.984;-1.586;2023-04-21T10:04:55;20.80;60.60
53978;DHT22;39886;47.984;-1.586;2023-04-21T10:07:21;20.80;60.60
53978;DHT22;39886;47.984;-1.586;2023-04-21T10:09:51;20.80;60.60
53978;DHT22;39886;47.984;-1.586;2023-04-21T10:12:21;20.80;61.20
53978;DHT22;39886;47.984;-1.586;2023-04-21T10:14:56;20.90;60.40
53978;DHT22;39886;47.984;-1.586;2023-04-21T10:17:23;20.90;60.20
53978;DHT22;39886;47.984;-1.586;2023-04-21T10:19:52;20.90;60.20
53978;DHT22;39886;47.984;-1.586;2023-04-21T10:22:28;20.90;60.00
53978;DHT22;39886;47.984;-1.586;2023-04-21T10:24:55;21.00;60.00
53978;DHT22;39886;47.984;-1.586;2023-04-21T10:30:03;21.00;59.90
53978;DHT22;39886;47.984;-1.586;2023-04-21T10:32:42;21.00;59.80
53978;DHT22;39886;47.984;-1.586;2023-04-21T10:35:14;21.00;59.70
53978;DHT22;39886;47.984;-1.586;2023-04-21T10:37:42;21.00;59.40
53978;DHT22;39886;47.984;-1.586;2023-04-21T10:42:55;21.10;59.50
53978;DHT22;39886;47.984;-1.586;2023-04-21T10:45:24;21.10;59.30
53978;DHT22;39886;47.984;-1.586;2023-04-21T10:47:51;21.10;59.10
53978;DHT22;39886;47.984;-1.586;2023-04-21T10:55:20;21.10;58.80
53978;DHT22;39886;47.984;-1.586;2023-04-21T10:57:47;21.20;58.90
53978;DHT22;39886;47.984;-1.586;2023-04-21T11:00:21;21.20;58.80
53978;DHT22;39886;47.984;-1.586;2023-04-21T11:03:14;21.20;58.70
53978;DHT22;39886;47.984;-1.586;2023-04-21T11:05:40;21.20;58.60
53978;DHT22;39886;47.984;-1.586;2023-04-21T11:08:09;21.20;58.60
53978;DHT22;39886;47.984;-1.586;2023-04-21T11:10:53;21.20;58.40
53978;DHT22;39886;47.984;-1.586;2023-04-21T11:13:24;21.30;58.30
53978;DHT22;39886;47.984;-1.586;2023-04-21T11:18:36;21.30;58.20
53978;DHT22;39886;47.984;-1.586;2023-04-21T11:21:12;21.30;58.10
53978;DHT22;39886;47.984;-1.586;2023-04-21T11:23:41;21.30;58.00
53978;DHT22;39886;47.984;-1.586;2023-04-21T11:26:12;21.30;58.00
53978;DHT22;39886;47.984;-1.586;2023-04-21T11:28:39;21.30;58.00
53978;DHT22;39886;47.984;-1.586;2023-04-21T11:31:06;21.30;58.00
53978;DHT22;39886;47.984;-1.586;2023-04-21T11:33:36;21.30;57.90
53978;DHT22;39886;47.984;-1.586;2023-04-21T11:36:06;21.30;57.80
53978;DHT22;39886;47.984;-1.586;2023-04-21T11:38:41;21.30;57.70
53978;DHT22;39886;47.984;-1.586;2023-04-21T11:41:08;21.30;57.80
53978;DHT22;39886;47.984;-1.586;2023-04-21T11:43:35;21.30;57.70
53978;DHT22;39886;47.984;-1.586;2023-04-21T11:46:12;21.30;57.70
53978;DHT22;39886;47.984;-1.586;2023-04-21T11:48:38;21.30;57.30
53978;DHT22;39886;47.984;-1.586;2023-04-21T11:51:03;21.40;57.50
53978;DHT22;39886;47.984;-1.586;2023-04-21T11:53:29;21.40;57.50
53978;DHT22;39886;47.984;-1.586;2023-04-21T11:55:55;21.40;57.50
53978;DHT22;39886;47.984;-1.586;2023-04-21T11:58:21;21.40;57.30
53978;DHT22;39886;47.984;-1.586;2023-04-21T12:00:49;21.40;57.50
53978;DHT22;39886;47.984;-1.586;2023-04-21T12:03:15;21.40;57.40
53978;DHT22;39886;47.984;-1.586;2023-04-21T12:05:55;21.40;57.20
53978;DHT22;39886;47.984;-1.586;2023-04-21T12:08:20;21.50;57.10
53978;DHT22;39886;47.984;-1.586;2023-04-21T12:10:47;21.40;57.10
53978;DHT22;39886;47.984;-1.586;2023-04-21T12:13:21;21.50;57.10
53978;DHT22;39886;47.984;-1.586;2023-04-21T12:15:48;21.50;57.10
53978;DHT22;39886;47.984;-1.586;2023-04-21T12:18:14;21.40;57.00
53978;DHT22;39886;47.984;-1.586;2023-04-21T12:20:48;21.40;57.10
53978;DHT22;39886;47.984;-1.586;2023-04-21T12:23:14;21.50;57.00
53978;DHT22;39886;47.984;-1.586;2023-04-21T12:25:40;21.50;57.10
53978;DHT22;39886;47.984;-1.586;2023-04-21T12:28:07;21.50;57.00
53978;DHT22;39886;47.984;-1.586;2023-04-21T12:30:33;21.50;57.00
53978;DHT22;39886;47.984;-1.586;2023-04-21T12:33:00;21.50;57.00
53978;DHT22;39886;47.984;-1.586;2023-04-21T12:35:25;21.60;57.00
53978;DHT22;39886;47.984;-1.586;2023-04-21T12:37:51;21.60;57.00
53978;DHT22;39886;47.984;-1.586;2023-04-21T12:40:17;21.60;57.00
53978;DHT22;39886;47.984;-1.586;2023-04-21T12:42:43;21.60;57.10
53978;DHT22;39886;47.984;-1.586;2023-04-21T12:45:09;21.60;57.10
53978;DHT22;39886;47.984;-1.586;2023-04-21T12:47:35;21.60;57.10
53978;DHT22;39886;47.984;-1.586;2023-04-21T12:50:01;21.60;57.10
53978;DHT22;39886;47.984;-1.586;2023-04-21T12:52:27;21.60;57.10
53978;DHT22;39886;47.984;-1.586;2023-04-21T12:54:53;21.60;57.20
53978;DHT22;39886;47.984;-1.586;2023-04-21T12:57:20;21.60;57.20
53978;DHT22;39886;47.984;-1.586;2023-04-21T12:59:45;21.60;57.20
53978;DHT22;39886;47.984;-1.586;2023-04-21T13:02:11;21.70;57.40
53978;DHT22;39886;47.984;-1.586;2023-04-21T13:04:37;21.70;57.30
53978;DHT22;39886;47.984;-1.586;2023-04-21T13:07:06;21.70;57.30
53978;DHT22;39886;47.984;-1.586;2023-04-21T13:09:32;21.70;57.20
53978;DHT22;39886;47.984;-1.586;2023-04-21T13:11:57;21.70;57.90
53978;DHT22;39886;47.984;-1.586;2023-04-21T13:14:23;21.70;57.20
53978;DHT22;39886;47.984;-1.586;2023-04-21T13:16:49;21.70;57.30
53978;DHT22;39886;47.984;-1.586;2023-04-21T13:19:14;21.70;57.40
53978;DHT22;39886;47.984;-1.586;2023-04-21T13:21:40;21.70;57.20
53978;DHT22;39886;47.984;-1.586;2023-04-21T13:24:06;21.80;57.30
53978;DHT22;39886;47.984;-1.586;2023-04-21T13:26:32;21.80;57.30
53978;DHT22;39886;47.984;-1.586;2023-04-21T13:29:00;21.80;57.10
53978;DHT22;39886;47.984;-1.586;2023-04-21T13:31:27;21.80;57.00
53978;DHT22;39886;47.984;-1.586;2023-04-21T13:33:52;21.80;57.00
53978;DHT22;39886;47.984;-1.586;2023-04-21T13:36:18;21.80;57.80
53978;DHT22;39886;47.984;-1.586;2023-04-21T13:38:44;21.80;56.90
53978;DHT22;39886;47.984;-1.586;2023-04-21T13:41:10;21.90;57.00
53978;DHT22;39886;47.984;-1.586;2023-04-21T13:43:35;21.80;57.10
53978;DHT22;39886;47.984;-1.586;2023-04-21T13:46:01;21.90;57.10
53978;DHT22;39886;47.984;-1.586;2023-04-21T13:48:27;21.90;57.10
53978;DHT22;39886;47.984;-1.586;2023-04-21T13:50:54;21.90;57.10
53978;DHT22;39886;47.984;-1.586;2023-04-21T13:53:20;22.00;56.90
53978;DHT22;39886;47.984;-1.586;2023-04-21T13:55:46;21.90;56.80
53978;DHT22;39886;47.984;-1.586;2023-04-21T13:58:13;21.90;57.00
53978;DHT22;39886;47.984;-1.586;2023-04-21T14:00:40;21.90;57.00
53978;DHT22;39886;47.984;-1.586;2023-04-21T14:03:06;21.90;57.10
53978;DHT22;39886;47.984;-1.586;2023-04-21T14:05:31;21.90;57.00
53978;DHT22;39886;47.984;-1.586;2023-04-21T14:07:58;22.10;56.80
53978;DHT22;39886;47.984;-1.586;2023-04-21T14:10:23;22.20;56.40
53978;DHT22;39886;47.984;-1.586;2023-04-21T14:12:49;22.20;56.40
53978;DHT22;39886;47.984;-1.586;2023-04-21T14:15:15;22.10;56.50
53978;DHT22;39886;47.984;-1.586;2023-04-21T14:17:41;22.00;56.70
53978;DHT22;39886;47.984;-1.586;2023-04-21T14:20:07;22.00;56.90
53978;DHT22;39886;47.984;-1.586;2023-04-21T14:22:34;22.00;57.10
53978;DHT22;39886;47.984;-1.586;2023-04-21T14:25:00;21.90;57.10
53978;DHT22;39886;47.984;-1.586;2023-04-21T14:27:26;21.90;57.10
53978;DHT22;39886;47.984;-1.586;2023-04-21T14:29:51;21.90;57.80
53978;DHT22;39886;47.984;-1.586;2023-04-21T14:32:17;21.90;57.00
53978;DHT22;39886;47.984;-1.586;2023-04-21T14:34:45;21.90;56.80
53978;DHT22;39886;47.984;-1.586;2023-04-21T14:37:11;21.90;56.40
53978;DHT22;39886;47.984;-1.586;2023-04-21T14:39:37;21.80;57.20
53978;DHT22;39886;47.984;-1.586;2023-04-21T14:42:03;21.80;56.30
53978;DHT22;39886;47.984;-1.586;2023-04-21T14:44:28;21.80;56.20
53978;DHT22;39886;47.984;-1.586;2023-04-21T14:46:54;21.80;56.20
53978;DHT22;39886;47.984;-1.586;2023-04-21T14:49:20;21.80;56.30
53978;DHT22;39886;47.984;-1.586;2023-04-21T14:51:46;21.70;56.70
53978;DHT22;39886;47.984;-1.586;2023-04-21T14:54:14;21.70;56.00
53978;DHT22;39886;47.984;-1.586;2023-04-21T14:56:40;21.70;56.00
53978;DHT22;39886;47.984;-1.586;2023-04-21T14:59:05;21.70;56.00
53978;DHT22;39886;47.984;-1.586;2023-04-21T15:01:31;21.70;55.40
53978;DHT22;39886;47.984;-1.586;2023-04-21T15:03:57;21.60;54.60
53978;DHT22;39886;47.984;-1.586;2023-04-21T15:06:24;21.50;53.90
53978;DHT22;39886;47.984;-1.586;2023-04-21T15:08:52;21.50;52.80
53978;DHT22;39886;47.984;-1.586;2023-04-21T15:11:18;21.60;52.80
53978;DHT22;39886;47.984;-1.586;2023-04-21T15:13:44;21.60;52.80
53978;DHT22;39886;47.984;-1.586;2023-04-21T15:16:10;21.60;52.80
53978;DHT22;39886;47.984;-1.586;2023-04-21T15:18:36;21.60;52.90
53978;DHT22;39886;47.984;-1.586;2023-04-21T15:21:02;21.60;53.10
53978;DHT22;39886;47.984;-1.586;2023-04-21T15:23:28;21.60;53.50
53978;DHT22;39886;47.984;-1.586;2023-04-21T15:25:54;21.60;53.70
53978;DHT22;39886;47.984;-1.586;2023-04-21T15:28:19;21.50;53.90